createdAt,value
2022-09-12T00:07:39.777Z,14.6
2022-09-12T00:37:00.153Z,14.3
2022-09-12T01:06:23.545Z,14.1
2022-09-12T01:35:42.789Z,13.8
2022-09-12T02:05:00.811Z,13.6
2022-09-12T02:34:26.775Z,13.4
2022-09-12T03:03:50.025Z,13.3
2022-09-12T03:33:11.426Z,13.1
2022-09-12T04:02:23.529Z,12.9
2022-09-12T04:31:41.196Z,12.6
2022-09-12T05:01:02.466Z,12.5
2022-09-12T05:30:22.714Z,12.3
2022-09-12T05:59:42.371Z,12.5
2022-09-12T06:29:03.606Z,13
2022-09-12T06:58:26.335Z,13.9
2022-09-12T07:27:42.143Z,15.1
2022-09-12T07:56:58.717Z,16.1
2022-09-12T08:26:22.527Z,17.6
2022-09-12T08:55:46.205Z,19.2
2022-09-12T09:25:23.384Z,20.4
2022-09-12T09:54:18.802Z,21.4
2022-09-12T10:23:46.161Z,22.6
2022-09-12T10:53:04.792Z,23.4
2022-09-12T11:22:32.604Z,30.3
2022-09-12T11:52:16.116Z,37.8
2022-09-12T12:21:44.726Z,30.6
2022-09-12T12:50:59.084Z,26.6
2022-09-12T13:20:29.882Z,25.3
2022-09-12T13:49:00.889Z,25.5
2022-09-12T14:18:12.972Z,25.4
2022-09-12T14:47:41.029Z,32.4
2022-09-12T15:17:17.118Z,33.8
2022-09-12T15:46:38.740Z,30.6
2022-09-12T16:15:55.184Z,28.5
2022-09-12T16:45:04.730Z,26.9
2022-09-12T17:14:13.443Z,25.6
2022-09-12T17:43:19.882Z,24.1
2022-09-12T18:12:35.854Z,22.6
2022-09-12T18:41:52.219Z,21.4
2022-09-12T19:11:08.694Z,20.3
2022-09-12T19:40:25.154Z,19.5
2022-09-12T20:09:44.568Z,18.7
2022-09-12T20:39:04.811Z,18.2
2022-09-12T21:08:26.215Z,18.2
2022-09-12T21:37:46.148Z,18.4
2022-09-12T22:07:05.022Z,18.3
2022-09-12T22:36:19.631Z,18.1
2022-09-12T23:05:30.888Z,17.8
2022-09-12T23:34:54.963Z,17.7
